createdAt,value
2018-12-07T00:00:13.297Z,100751.83
2018-12-07T00:03:41.161Z,100755.84
2018-12-07T00:07:10.020Z,100747.78
2018-12-07T00:10:37.874Z,100736.12
2018-12-07T00:14:05.743Z,100721.34
2018-12-07T00:17:33.611Z,100711.34
2018-12-07T00:21:01.461Z,100718.98
2018-12-07T00:24:30.322Z,100711.19
2018-12-07T00:27:58.189Z,100713.07
2018-12-07T00:31:26.034Z,100702.51
2018-12-07T00:34:53.901Z,100684.29
2018-12-07T00:38:21.771Z,100687.75
2018-12-07T00:41:49.619Z,100690.39
2018-12-07T00:45:17.485Z,100680.03
2018-12-07T00:48:45.350Z,100678.2
2018-12-07T00:52:13.219Z,100678.31
2018-12-07T00:55:41.075Z,100676.28
2018-12-07T00:59:08.946Z,100673.48
2018-12-07T01:02:36.816Z,100671.54
2018-12-07T01:06:04.675Z,100668.69
2018-12-07T01:09:32.541Z,100664.13
2018-12-07T01:13:01.217Z,100663.06
2018-12-07T01:16:30.061Z,100669.3
2018-12-07T01:19:57.933Z,100653.12
2018-12-07T01:23:25.806Z,100662.06
2018-12-07T01:26:53.678Z,100652.38
2018-12-07T01:30:21.533Z,100660.17
2018-12-07T01:33:49.406Z,100653.99
2018-12-07T01:37:18.264Z,100648.82
2018-12-07T01:40:46.119Z,100651.25
2018-12-07T01:44:13.987Z,100639.92
2018-12-07T01:47:41.861Z,100629.59
2018-12-07T01:51:09.710Z,100626.1
2018-12-07T01:54:38.575Z,100617.07
2018-12-07T01:58:06.449Z,100606.65
2018-12-07T02:01:34.311Z,100593.71
2018-12-07T02:05:02.174Z,100594.77
2018-12-07T02:08:30.044Z,100595.53
2018-12-07T02:11:57.963Z,100592.05
2018-12-07T02:15:25.869Z,100590.1
2018-12-07T02:18:53.733Z,100578.65
2018-12-07T02:22:21.710Z,100570.03
2018-12-07T02:25:49.570Z,100583.04
2018-12-07T02:29:17.428Z,100575.04
2018-12-07T02:32:45.298Z,100577.56
2018-12-07T02:36:13.158Z,100582.32
2018-12-07T02:39:41.026Z,100570.84
2018-12-07T02:43:08.982Z,100573.97
2018-12-07T02:46:36.831Z,100578.89
2018-12-07T02:50:04.693Z,100566.15
2018-12-07T02:53:32.671Z,100560.95
2018-12-07T02:57:00.525Z,100539.17
2018-12-07T03:00:28.393Z,100532.39
2018-12-07T03:03:56.288Z,100531.35
2018-12-07T03:07:24.137Z,100516.11
2018-12-07T03:10:52.006Z,100518.47
2018-12-07T03:14:19.875Z,100517.28
2018-12-07T03:17:47.730Z,100524.34
2018-12-07T03:21:15.603Z,100517.53
2018-12-07T03:24:43.472Z,100527.1
2018-12-07T03:28:11.322Z,100517.67
2018-12-07T03:31:39.207Z,100523.41
2018-12-07T03:35:07.056Z,100530.93
2018-12-07T03:38:34.911Z,100529.96
2018-12-07T03:42:02.783Z,100531.56
2018-12-07T03:45:30.651Z,100523.42
2018-12-07T03:48:58.497Z,100523
2018-12-07T03:52:26.374Z,100517.09
2018-12-07T03:55:55.253Z,100510.6
2018-12-07T03:59:23.129Z,100513.84
2018-12-07T04:02:50.982Z,100522.87
2018-12-07T04:06:18.851Z,100517.95
2018-12-07T04:09:46.722Z,100521.13
2018-12-07T04:13:14.575Z,100524.93
2018-12-07T04:16:42.443Z,100519.43
2018-12-07T04:20:10.305Z,100527.67
2018-12-07T04:23:38.183Z,100527.5
2018-12-07T04:27:06.048Z,100531.89
2018-12-07T04:30:33.969Z,100536.47
2018-12-07T04:34:01.814Z,100533.71
2018-12-07T04:37:29.683Z,100523.71
2018-12-07T04:40:57.555Z,100532.2
2018-12-07T04:44:25.415Z,100530.04
2018-12-07T04:47:53.278Z,100527.95
2018-12-07T04:51:21.156Z,100525.73
2018-12-07T04:54:50.007Z,100530.18
2018-12-07T04:58:18.861Z,100533.19
2018-12-07T05:01:46.734Z,100532.32
2018-12-07T05:05:14.604Z,100511.96
2018-12-07T05:08:42.460Z,100524.99
2018-12-07T05:12:11.321Z,100523.6
2018-12-07T05:15:39.207Z,100516.81
2018-12-07T05:19:07.060Z,100503.71
2018-12-07T05:22:34.936Z,100505.42
2018-12-07T05:26:03.801Z,100500.73
2018-12-07T05:29:31.653Z,100500.35
2018-12-07T05:32:59.521Z,100492.6
2018-12-07T05:36:27.388Z,100498.09
2018-12-07T05:39:55.244Z,100497.85
2018-12-07T05:43:23.114Z,100498.48
2018-12-07T05:46:50.989Z,100499.11
2018-12-07T05:50:18.845Z,100500.2
2018-12-07T05:53:46.718Z,100503.1
2018-12-07T05:57:14.590Z,100494.32
2018-12-07T06:00:42.452Z,100506.98
2018-12-07T06:04:10.323Z,100506.01
2018-12-07T06:07:38.188Z,100507.3
2018-12-07T06:11:08.039Z,100505.78
2018-12-07T06:14:35.908Z,100496
2018-12-07T06:18:03.780Z,100502.62
2018-12-07T06:21:31.643Z,100506.59
2018-12-07T06:24:59.502Z,100498.73
2018-12-07T06:28:27.375Z,100501.7
2018-12-07T06:31:55.356Z,100498.89
2018-12-07T06:35:23.216Z,100499.39
2018-12-07T06:38:51.089Z,100494.23
2018-12-07T06:42:19.112Z,100495.67
2018-12-07T06:45:46.963Z,100488.47
2018-12-07T06:49:14.827Z,100487.67
2018-12-07T06:52:42.703Z,100491.85
2018-12-07T06:56:10.564Z,100481.07
2018-12-07T06:59:38.439Z,100478.31
2018-12-07T07:03:06.311Z,100474.43
2018-12-07T07:06:34.166Z,100466.84
2018-12-07T07:10:02.037Z,100463.89
2018-12-07T07:13:29.916Z,100461.61
2018-12-07T07:16:57.778Z,100464.76
2018-12-07T07:20:25.652Z,100468.15
2018-12-07T07:23:53.527Z,100470.82
2018-12-07T07:27:21.379Z,100464.89
2018-12-07T07:30:49.248Z,100472.26
2018-12-07T07:34:17.119Z,100472.04
2018-12-07T07:37:44.979Z,100477.5
2018-12-07T07:41:12.854Z,100479.28
2018-12-07T07:44:40.731Z,100483.56
2018-12-07T07:48:08.594Z,100473.66
2018-12-07T07:51:36.468Z,100474.51
2018-12-07T07:55:04.340Z,100471.05
2018-12-07T07:58:32.244Z,100453.62
2018-12-07T08:02:00.101Z,100444.26
2018-12-07T08:05:27.973Z,100435.91
2018-12-07T08:08:55.844Z,100441.23
2018-12-07T08:12:23.698Z,100449.43
2018-12-07T08:15:51.571Z,100446.25
2018-12-07T08:19:19.456Z,100447.4
2018-12-07T08:22:47.310Z,100441.22
2018-12-07T08:26:15.181Z,100427.92
2018-12-07T08:29:43.059Z,100431.61
2018-12-07T08:33:10.906Z,100419.83
2018-12-07T08:36:39.775Z,100417.78
2018-12-07T08:40:07.644Z,100420.53
2018-12-07T08:43:35.507Z,100423.92
2018-12-07T08:47:03.383Z,100419.86
2018-12-07T08:50:31.263Z,100415.92
2018-12-07T08:53:59.122Z,100421.7
2018-12-07T08:57:26.999Z,100419.4
2018-12-07T09:00:54.872Z,100421.2
2018-12-07T09:04:22.812Z,100409.83
2018-12-07T09:07:50.675Z,100404.25
2018-12-07T09:11:18.549Z,100403.9
2018-12-07T09:14:46.420Z,100400.6
2018-12-07T09:18:14.285Z,100394.53
2018-12-07T09:21:42.168Z,100394.71
2018-12-07T09:25:11.033Z,100394.39
2018-12-07T09:28:38.890Z,100391.14
2018-12-07T09:32:07.767Z,100392.23
2018-12-07T09:35:35.646Z,100386.85
2018-12-07T09:39:03.504Z,100383
2018-12-07T09:42:31.375Z,100379.15
2018-12-07T09:45:59.252Z,100377.28
2018-12-07T09:49:27.116Z,100370.17
2018-12-07T09:52:54.994Z,100365.23
2018-12-07T09:56:22.858Z,100363.5
2018-12-07T09:59:50.717Z,100357.75
2018-12-07T10:03:19.589Z,100350.38
2018-12-07T10:06:47.460Z,100345.54
2018-12-07T10:10:15.322Z,100340.18
2018-12-07T10:13:43.201Z,100324.09
2018-12-07T10:17:12.071Z,100315.84
2018-12-07T10:20:39.932Z,100316.38
2018-12-07T10:24:07.809Z,100312.82
2018-12-07T10:27:35.693Z,100307.68
2018-12-07T10:31:03.550Z,100303.33
2018-12-07T10:34:31.431Z,100297.81
2018-12-07T10:37:59.301Z,100297.53
2018-12-07T10:41:27.284Z,100293.31
2018-12-07T10:44:55.133Z,100287.17
2018-12-07T10:48:23.013Z,100267.46
2018-12-07T10:51:50.883Z,100260.62
2018-12-07T10:55:18.739Z,100253.96
2018-12-07T10:58:46.611Z,100253.46
2018-12-07T11:02:14.504Z,100239.37
2018-12-07T11:05:42.365Z,100238.92
2018-12-07T11:09:10.239Z,100232.26
2018-12-07T11:12:38.125Z,100219.17
2018-12-07T11:16:05.979Z,100215.21
2018-12-07T11:19:34.837Z,100208.47
2018-12-07T11:23:02.711Z,100202.48
2018-12-07T11:26:30.584Z,100196.52
2018-12-07T11:29:59.454Z,100189.53
2018-12-07T11:33:27.332Z,100183.65
2018-12-07T11:36:55.205Z,100177.97
2018-12-07T11:40:24.077Z,100169.62
2018-12-07T11:43:52.924Z,100158.3
2018-12-07T11:47:20.799Z,100157.69
2018-12-07T11:50:49.646Z,100151.62
2018-12-07T11:54:17.517Z,100145.06
2018-12-07T11:57:45.392Z,100135.25
2018-12-07T12:01:13.260Z,100140.39
2018-12-07T12:04:41.131Z,100132.17
2018-12-07T12:08:09.019Z,100129.57
2018-12-07T12:11:36.874Z,100128.07
2018-12-07T12:15:05.744Z,100116
2018-12-07T12:18:33.624Z,100110.23
2018-12-07T12:22:01.480Z,100104.85
2018-12-07T12:25:29.365Z,100098.22
2018-12-07T12:28:57.239Z,100091.42
2018-12-07T12:32:25.118Z,100084.67
2018-12-07T12:35:52.982Z,100079.61
2018-12-07T12:39:20.860Z,100068.89
2018-12-07T12:42:48.730Z,100061.56
2018-12-07T12:46:16.590Z,100052.87
2018-12-07T12:49:44.469Z,100043.84
2018-12-07T12:53:12.339Z,100038.81
2018-12-07T12:56:40.199Z,100029.15
2018-12-07T13:00:08.084Z,100021.71
2018-12-07T13:03:35.958Z,100014.54
2018-12-07T13:07:03.828Z,100006.5
2018-12-07T13:10:31.817Z,99998.484
2018-12-07T13:13:59.697Z,99997.656
2018-12-07T13:17:27.557Z,99988.085
2018-12-07T13:20:56.449Z,99976.773
2018-12-07T13:24:24.325Z,99975
2018-12-07T13:27:52.200Z,99966.921
2018-12-07T13:31:20.074Z,99961.937
2018-12-07T13:34:47.956Z,99958.75
2018-12-07T13:38:15.840Z,99949.703
2018-12-07T13:41:50.273Z,99940.187
2018-12-07T13:45:15.740Z,99929.546
2018-12-07T13:48:43.637Z,99924.375
2018-12-07T13:52:11.514Z,99910.742
2018-12-07T13:55:40.025Z,99906.421
2018-12-07T13:59:07.792Z,99898.031
2018-12-07T14:02:36.819Z,99882.921
2018-12-07T14:06:04.528Z,99881.515
2018-12-07T14:09:32.490Z,99877.468
2018-12-07T14:13:00.268Z,99875.578
2018-12-07T14:16:28.094Z,99872.39
2018-12-07T14:19:56.037Z,99867.14
2018-12-07T14:23:23.916Z,99860.75
2018-12-07T14:26:59.269Z,99856.679
2018-12-07T14:30:23.592Z,99858.484
2018-12-07T14:33:51.589Z,99853.781
2018-12-07T14:37:19.504Z,99852.914
2018-12-07T14:40:47.425Z,99848.453
2018-12-07T14:44:15.122Z,99845.718
2018-12-07T14:47:44.211Z,99838.25
2018-12-07T14:51:11.851Z,99833.796
2018-12-07T14:54:39.701Z,99828.875
2018-12-07T14:58:07.857Z,99829.093
2018-12-07T15:01:35.654Z,99820.875
2018-12-07T15:05:03.463Z,99818.625
2018-12-07T15:08:31.332Z,99811.46
2018-12-07T15:11:59.086Z,99811.804
2018-12-07T15:15:27.086Z,99801.257
2018-12-07T15:18:54.790Z,99797.078
2018-12-07T15:22:22.676Z,99778.14
2018-12-07T15:25:50.743Z,99770.421
2018-12-07T15:29:19.520Z,99769.312
2018-12-07T15:32:47.305Z,99765.203
2018-12-07T15:36:15.157Z,99754.492
2018-12-07T15:39:43.000Z,99749.804
2018-12-07T15:43:10.874Z,99737.593
2018-12-07T15:46:38.800Z,99726.156
2018-12-07T15:50:06.596Z,99713.718
2018-12-07T15:53:34.565Z,99712.429
2018-12-07T15:57:02.424Z,99704.257
2018-12-07T16:00:30.198Z,99699.093
2018-12-07T16:03:58.218Z,99696.546
2018-12-07T16:07:26.939Z,99683.828
2018-12-07T16:10:55.014Z,99679.281
2018-12-07T16:14:22.901Z,99675.078
2018-12-07T16:17:50.601Z,99669.906
2018-12-07T16:21:19.540Z,99671.046
2018-12-07T16:24:48.306Z,99657.64
2018-12-07T16:28:16.135Z,99652.664
2018-12-07T16:31:45.264Z,99640.937
2018-12-07T16:35:12.983Z,99640.085
2018-12-07T16:38:40.780Z,99634.984
2018-12-07T16:42:08.624Z,99623.609
2018-12-07T16:45:36.472Z,99626.89
2018-12-07T16:49:04.585Z,99624.234
2018-12-07T16:52:32.315Z,99619.343
2018-12-07T16:56:00.222Z,99606.14
2018-12-07T16:59:28.269Z,99603.093
2018-12-07T17:02:55.859Z,99592.937
2018-12-07T17:06:23.732Z,99593.703
2018-12-07T17:09:52.566Z,99590.078
2018-12-07T17:13:20.740Z,99586.937
2018-12-07T17:16:48.454Z,99581.859
2018-12-07T17:20:17.492Z,99579.484
2018-12-07T17:23:45.072Z,99575.703
2018-12-07T17:27:13.058Z,99574.843
2018-12-07T17:30:40.815Z,99576.742
2018-12-07T17:34:08.720Z,99562.734
2018-12-07T17:37:36.630Z,99563.171
2018-12-07T17:41:04.515Z,99556.226
2018-12-07T17:44:32.440Z,99548.031
2018-12-07T17:48:00.191Z,99543.664
2018-12-07T17:51:28.253Z,99546.234
2018-12-07T17:54:56.100Z,99536.039
2018-12-07T17:58:24.977Z,99534.14
2018-12-07T18:01:52.635Z,99521.703
2018-12-07T18:05:20.762Z,99517.453
2018-12-07T18:08:48.410Z,99509.101
2018-12-07T18:12:16.364Z,99509.054
2018-12-07T18:15:44.226Z,99500.64
2018-12-07T18:19:12.225Z,99493.375
2018-12-07T18:22:39.900Z,99488.398
2018-12-07T18:26:07.815Z,99493.226
2018-12-07T18:29:35.738Z,99474.585
2018-12-07T18:33:03.655Z,99473.726
2018-12-07T18:36:31.889Z,99461.226
2018-12-07T18:40:00.601Z,99452.226
2018-12-07T18:43:28.546Z,99451.531
2018-12-07T18:46:56.377Z,99430.742
2018-12-07T18:50:24.231Z,99421.695
2018-12-07T18:53:53.104Z,99421.531
2018-12-07T18:57:20.969Z,99413.898
2018-12-07T19:00:49.138Z,99407.21
2018-12-07T19:04:16.890Z,99398.601
2018-12-07T19:07:44.883Z,99402.156
2018-12-07T19:11:12.757Z,99389.875
2018-12-07T19:14:40.621Z,99389.718
2018-12-07T19:18:08.748Z,99382.984
2018-12-07T19:21:36.485Z,99376.039
2018-12-07T19:25:04.208Z,99364.453
2018-12-07T19:28:32.268Z,99358.984
2018-12-07T19:32:00.092Z,99355.382
2018-12-07T19:35:28.249Z,99347.015
2018-12-07T19:38:56.852Z,99348.945
2018-12-07T19:42:24.738Z,99339.421
2018-12-07T19:45:52.836Z,99327.609
2018-12-07T19:49:20.836Z,99318.82
2018-12-07T19:52:48.345Z,99326.109
2018-12-07T19:56:16.505Z,99312.406
2018-12-07T19:59:44.236Z,99316.89
2018-12-07T20:03:12.994Z,99303.703
2018-12-07T20:06:41.517Z,99297.859
2018-12-07T20:10:09.737Z,99292.507
2018-12-07T20:13:37.512Z,99282.187
2018-12-07T20:17:06.162Z,99282.679
2018-12-07T20:20:34.021Z,99278
2018-12-07T20:24:03.012Z,99277.789
2018-12-07T20:27:30.916Z,99270.132
2018-12-07T20:30:58.724Z,99273.523
2018-12-07T20:34:26.839Z,99258.671
2018-12-07T20:37:54.806Z,99267.71
2018-12-07T20:41:22.754Z,99249.625
2018-12-07T20:44:50.671Z,99247.109
2018-12-07T20:48:18.237Z,99242.718
2018-12-07T20:51:46.259Z,99243.859
2018-12-07T20:55:14.213Z,99235.89
2018-12-07T20:58:42.069Z,99226.25
2018-12-07T21:02:09.887Z,99218.093
2018-12-07T21:05:37.649Z,99207.617
2018-12-07T21:09:05.521Z,99212.71
2018-12-07T21:12:34.573Z,99212.14
2018-12-07T21:16:02.266Z,99206.835
2018-12-07T21:19:30.159Z,99204.625
2018-12-07T21:22:58.313Z,99199.484
2018-12-07T21:26:26.052Z,99204.14
2018-12-07T21:29:53.748Z,99191.078
2018-12-07T21:33:21.716Z,99189.343
2018-12-07T21:36:49.571Z,99183.046
2018-12-07T21:40:17.667Z,99176.828
2018-12-07T21:43:45.227Z,99176.203
2018-12-07T21:47:13.352Z,99179.703
2018-12-07T21:50:41.027Z,99168.25
2018-12-07T21:54:09.136Z,99166.859
2018-12-07T21:57:36.965Z,99164.671
2018-12-07T22:01:05.790Z,99163.14
2018-12-07T22:04:33.891Z,99163.023
2018-12-07T22:08:01.942Z,99160.968
2018-12-07T22:11:29.467Z,99151.234
2018-12-07T22:14:57.363Z,99136.281
2018-12-07T22:18:26.127Z,99134.039
2018-12-07T22:21:54.081Z,99120.687
2018-12-07T22:25:22.892Z,99125.992
2018-12-07T22:28:50.905Z,99122.109
2018-12-07T22:32:18.946Z,99117.132
2018-12-07T22:35:46.535Z,99116.593
2018-12-07T22:39:14.392Z,99111.507
2018-12-07T22:42:42.276Z,99104.609
2018-12-07T22:46:10.339Z,99100.093
2018-12-07T22:49:38.025Z,99109.593
2018-12-07T22:53:05.883Z,99115.75
2018-12-07T22:56:33.754Z,99106.75
2018-12-07T23:00:02.617Z,99105.335
2018-12-07T23:03:30.477Z,99094.265
2018-12-07T23:06:58.345Z,99090.789
2018-12-07T23:10:26.222Z,99088.875
2018-12-07T23:13:54.069Z,99095.867
2018-12-07T23:17:21.942Z,99100.578
2018-12-07T23:20:49.814Z,99092.531
2018-12-07T23:24:17.684Z,99093.148
2018-12-07T23:27:46.537Z,99086.593
2018-12-07T23:31:14.414Z,99093.718
2018-12-07T23:34:42.290Z,99130.796
2018-12-07T23:38:10.152Z,99189.828
2018-12-07T23:41:38.026Z,99190.656
2018-12-07T23:45:05.902Z,99205.203
2018-12-07T23:48:33.754Z,99226.828
2018-12-07T23:52:01.624Z,99218.531
2018-12-07T23:55:29.497Z,99229.601
2018-12-07T23:58:57.357Z,99245.882
